createdAt,value
2023-03-26T00:00:31.357Z,99094.16
2023-03-26T00:01:02.820Z,99097.09
2023-03-26T00:01:34.258Z,99090.31
2023-03-26T00:02:05.789Z,99095.28
2023-03-26T00:02:37.427Z,99095.28
2023-03-26T00:03:08.977Z,99090.31
2023-03-26T00:03:40.434Z,99099.81
2023-03-26T00:04:11.933Z,99090.31
2023-03-26T00:04:43.341Z,99097.22
2023-03-26T00:05:14.865Z,99091.44
2023-03-26T00:05:46.348Z,99094.66
2023-03-26T00:06:17.964Z,99093.84
2023-03-26T00:06:49.381Z,99090.94
2023-03-26T00:07:20.888Z,99091.75
2023-03-26T00:07:52.397Z,99088.72
2023-03-26T00:08:23.942Z,99101.22
2023-03-26T00:08:55.394Z,99089.22
2023-03-26T00:09:26.905Z,99092.75
2023-03-26T00:09:58.368Z,99092.75
2023-03-26T00:10:29.933Z,99088.72
2023-03-26T00:11:01.430Z,99090.31
2023-03-26T00:11:32.967Z,99092.75
2023-03-26T00:12:04.461Z,99092.56
2023-03-26T00:12:36.018Z,99093.38
2023-03-26T00:13:10.404Z,99094.16
2023-03-26T00:13:41.813Z,99097.38
2023-03-26T00:14:13.381Z,99098.00
2023-03-26T00:14:44.813Z,99094.97
2023-03-26T00:15:16.300Z,99101.03
2023-03-26T00:15:47.753Z,99091.75
2023-03-26T00:16:19.250Z,99096.91
2023-03-26T00:16:50.726Z,99094.66
2023-03-26T00:17:22.340Z,99095.78
2023-03-26T00:17:53.813Z,99096.41
2023-03-26T00:18:25.368Z,99095.91
2023-03-26T00:18:58.023Z,99094.78
2023-03-26T00:19:29.548Z,99103.97
2023-03-26T00:20:01.010Z,99094.97
2023-03-26T00:20:32.499Z,99095.78
2023-03-26T00:21:06.273Z,99093.06
2023-03-26T00:21:37.935Z,99100.75
2023-03-26T00:22:09.426Z,99091.75
2023-03-26T00:22:40.860Z,99097.38
2023-03-26T00:23:14.114Z,99103.16
2023-03-26T00:23:45.639Z,99095.78
2023-03-26T00:24:18.935Z,99096.59
2023-03-26T00:24:50.350Z,99102.84
2023-03-26T00:25:21.844Z,99096.91
2023-03-26T00:25:53.392Z,99101.53
2023-03-26T00:26:25.015Z,99100.91
2023-03-26T00:26:56.403Z,99093.84
2023-03-26T00:27:27.943Z,99099.00
2023-03-26T00:27:59.374Z,99099.81
2023-03-26T00:28:31.013Z,99096.59
2023-03-26T00:29:02.514Z,99091.13
2023-03-26T00:29:34.074Z,99094.66
2023-03-26T00:30:08.458Z,99097.69
2023-03-26T00:30:39.946Z,99092.25
2023-03-26T00:31:11.454Z,99094.16
2023-03-26T00:31:42.951Z,99095.47
2023-03-26T00:32:14.354Z,99097.38
2023-03-26T00:32:45.758Z,99084.88
2023-03-26T00:33:25.546Z,99094.97
2023-03-26T00:33:57.006Z,99093.06
2023-03-26T00:34:28.469Z,99090.31
2023-03-26T00:34:59.902Z,99091.75
2023-03-26T00:35:31.386Z,99091.75
2023-03-26T00:36:04.394Z,99088.22
2023-03-26T00:36:36.141Z,99090.16
2023-03-26T00:37:07.824Z,99091.44
2023-03-26T00:37:39.246Z,99091.75
2023-03-26T00:38:10.692Z,99093.38
2023-03-26T00:38:44.789Z,99091.75
2023-03-26T00:39:16.329Z,99086.63
2023-03-26T00:39:47.795Z,99085.19
2023-03-26T00:40:19.375Z,99086.50
2023-03-26T00:40:53.538Z,99087.41
2023-03-26T00:41:25.127Z,99087.72
2023-03-26T00:41:56.797Z,99085.19
2023-03-26T00:42:28.286Z,99088.72
2023-03-26T00:42:59.894Z,99086.00
2023-03-26T00:43:31.540Z,99084.06
2023-03-26T00:44:03.042Z,99082.47
2023-03-26T00:44:34.602Z,99089.22
2023-03-26T00:45:08.352Z,99084.56
2023-03-26T00:45:39.786Z,99080.53
2023-03-26T00:46:11.270Z,99085.19
2023-03-26T00:46:42.893Z,99084.06
2023-03-26T00:47:14.402Z,99078.44
2023-03-26T00:47:45.853Z,99081.16
2023-03-26T00:48:17.350Z,99087.09
2023-03-26T00:48:48.773Z,99079.41
2023-03-26T00:49:20.194Z,99083.75
2023-03-26T00:49:51.587Z,99086.19
2023-03-26T00:50:23.113Z,99088.91
2023-03-26T00:50:54.575Z,99076.69
2023-03-26T00:51:26.094Z,99081.84
2023-03-26T00:51:57.522Z,99078.63
2023-03-26T00:52:28.923Z,99085.69
2023-03-26T00:53:00.416Z,99083.75
2023-03-26T00:53:31.957Z,99084.56
2023-03-26T00:54:03.579Z,99088.59
2023-03-26T00:54:34.983Z,99086.50
2023-03-26T00:55:06.523Z,99079.41
2023-03-26T00:55:40.703Z,99079.41
2023-03-26T00:56:12.137Z,99080.22
2023-03-26T00:56:43.597Z,99084.06
2023-03-26T00:57:25.664Z,99083.75
2023-03-26T00:58:00.732Z,99076.38
2023-03-26T00:58:32.181Z,99074.78
2023-03-26T00:59:04.236Z,99073.97
2023-03-26T00:59:35.836Z,99080.22
2023-03-26T01:00:07.307Z,99076.06
2023-03-26T01:00:38.731Z,99076.38
2023-03-26T01:01:10.220Z,99073.34
2023-03-26T01:01:41.815Z,99079.72
2023-03-26T01:02:13.314Z,99071.38
2023-03-26T01:02:45.076Z,99073.16
2023-03-26T01:03:24.963Z,99069.31
2023-03-26T01:04:08.809Z,99073.16
2023-03-26T01:04:40.997Z,99074.59
2023-03-26T01:05:12.647Z,99073.47
2023-03-26T01:05:44.169Z,99071.25
2023-03-26T01:06:15.633Z,99063.06
2023-03-26T01:06:47.132Z,99069.31
2023-03-26T01:07:18.542Z,99066.09
2023-03-26T01:07:49.937Z,99068.50
2023-03-26T01:08:21.391Z,99060.66
2023-03-26T01:08:52.885Z,99060.66
2023-03-26T01:09:24.403Z,99065.78
2023-03-26T01:09:55.869Z,99060.66
2023-03-26T01:10:27.330Z,99064.50
2023-03-26T01:10:58.743Z,99066.09
2023-03-26T01:11:30.293Z,99061.94
2023-03-26T01:12:01.795Z,99072.03
2023-03-26T01:12:33.276Z,99057.00
2023-03-26T01:13:07.175Z,99064.66
2023-03-26T01:13:38.697Z,99063.56
2023-03-26T01:14:10.394Z,99053.75
2023-03-26T01:14:41.825Z,99055.69
2023-03-26T01:15:13.342Z,99060.34
2023-03-26T01:15:44.770Z,99063.06
2023-03-26T01:16:16.280Z,99061.44
2023-03-26T01:16:47.740Z,99056.00
2023-03-26T01:17:19.175Z,99060.34
2023-03-26T01:17:50.651Z,99051.34
2023-03-26T01:18:22.228Z,99048.31
2023-03-26T01:18:53.706Z,99052.97
2023-03-26T01:19:27.077Z,99051.03
2023-03-26T01:19:58.601Z,99052.66
2023-03-26T01:20:30.061Z,99055.38
2023-03-26T01:21:01.497Z,99053.75
2023-03-26T01:21:32.954Z,99045.59
2023-03-26T01:22:04.369Z,99051.03
2023-03-26T01:22:35.904Z,99046.69
2023-03-26T01:23:07.416Z,99048.63
2023-03-26T01:23:38.872Z,99048.31
2023-03-26T01:24:10.466Z,99048.31
2023-03-26T01:24:41.953Z,99046.38
2023-03-26T01:25:13.498Z,99048.31
2023-03-26T01:25:44.988Z,99048.31
2023-03-26T01:26:16.459Z,99046.69
2023-03-26T01:26:47.948Z,99046.69
2023-03-26T01:27:19.558Z,99043.97
2023-03-26T01:27:51.074Z,99043.78
2023-03-26T01:28:22.473Z,99048.94
2023-03-26T01:28:53.947Z,99038.03
2023-03-26T01:29:25.519Z,99046.69
2023-03-26T01:29:56.922Z,99048.00
2023-03-26T01:30:29.462Z,99040.94
2023-03-26T01:31:00.873Z,99047.50
2023-03-26T01:31:32.447Z,99044.47
2023-03-26T01:32:03.875Z,99038.69
2023-03-26T01:32:35.690Z,99046.06
2023-03-26T01:33:07.426Z,99041.56
2023-03-26T01:33:39.031Z,99031.16
2023-03-26T01:34:10.620Z,99043.34
2023-03-26T01:34:42.061Z,99039.00
2023-03-26T01:35:13.572Z,99039.00
2023-03-26T01:35:47.176Z,99047.19
2023-03-26T01:36:18.646Z,99043.66
2023-03-26T01:36:50.089Z,99037.91
2023-03-26T01:37:21.478Z,99042.06
2023-03-26T01:37:52.942Z,99031.16
2023-03-26T01:38:25.932Z,99039.31
2023-03-26T01:38:58.443Z,99039.63
2023-03-26T01:39:30.835Z,99044.28
2023-03-26T01:40:02.311Z,99036.59
2023-03-26T01:40:33.742Z,99033.88
2023-03-26T01:41:05.202Z,99036.09
2023-03-26T01:41:36.909Z,99039.63
2023-03-26T01:42:08.417Z,99039.00
2023-03-26T01:42:39.892Z,99033.06
2023-03-26T01:43:11.352Z,99036.91
2023-03-26T01:43:42.769Z,99035.78
2023-03-26T01:44:17.035Z,99034.69
2023-03-26T01:44:48.527Z,99031.16
2023-03-26T01:45:20.123Z,99037.41
2023-03-26T01:45:54.568Z,99024.88
2023-03-26T01:46:26.219Z,99028.91
2023-03-26T01:46:57.675Z,99036.28
2023-03-26T01:47:33.773Z,99029.72
2023-03-26T01:48:05.265Z,99029.22
2023-03-26T01:48:36.822Z,99032.44
2023-03-26T01:49:11.279Z,99028.91
2023-03-26T01:49:42.669Z,99035.97
2023-03-26T01:50:14.259Z,99032.75
2023-03-26T01:50:45.647Z,99036.28
2023-03-26T01:51:18.810Z,99035.16
2023-03-26T01:51:50.265Z,99028.09
2023-03-26T01:52:21.706Z,99024.88
2023-03-26T01:52:53.196Z,99031.63
2023-03-26T01:53:24.619Z,99032.75
2023-03-26T01:53:56.358Z,99033.56
2023-03-26T01:54:27.816Z,99029.72
2023-03-26T01:54:59.312Z,99031.34
2023-03-26T01:55:33.332Z,99030.53
2023-03-26T01:56:04.828Z,99027.78
2023-03-26T01:56:36.290Z,99026.69
2023-03-26T01:57:07.749Z,99022.66
2023-03-26T01:57:39.311Z,99024.25
2023-03-26T01:58:10.830Z,99025.88
2023-03-26T01:58:42.351Z,99026.19
2023-03-26T01:59:13.747Z,99028.09
2023-03-26T01:59:45.247Z,99029.22
2023-03-26T02:00:16.789Z,99033.56
2023-03-26T02:00:48.276Z,99023.78
2023-03-26T02:01:19.824Z,99028.72
2023-03-26T02:01:51.448Z,99022.16
2023-03-26T02:02:23.038Z,99029.53
2023-03-26T02:02:54.607Z,99030.34
2023-03-26T02:03:29.155Z,99021.03
2023-03-26T02:04:00.680Z,99021.03
2023-03-26T02:04:32.134Z,99019.63
2023-03-26T02:05:03.599Z,99018.81
2023-03-26T02:05:35.123Z,99017.19
2023-03-26T02:06:06.588Z,99024.25
2023-03-26T02:06:38.082Z,99021.84
2023-03-26T02:07:09.706Z,99015.59
2023-03-26T02:07:41.113Z,99026.19
2023-03-26T02:08:12.560Z,99020.25
2023-03-26T02:08:44.002Z,99019.63
2023-03-26T02:09:15.450Z,99013.84
2023-03-26T02:09:46.851Z,99019.63
2023-03-26T02:10:21.284Z,99013.38
2023-03-26T02:10:52.716Z,99016.72
2023-03-26T02:11:33.553Z,99014.78
2023-03-26T02:12:06.799Z,99006.28
2023-03-26T02:12:38.401Z,99014.97
2023-03-26T02:13:09.789Z,99010.63
2023-03-26T02:13:43.842Z,99007.91
2023-03-26T02:14:15.367Z,99013.38
2023-03-26T02:14:46.848Z,99007.91
2023-03-26T02:15:18.374Z,99011.13
2023-03-26T02:15:49.872Z,99009.81
2023-03-26T02:16:21.324Z,98998.94
2023-03-26T02:16:52.809Z,99000.22
2023-03-26T02:17:24.648Z,99002.44
2023-03-26T02:17:56.131Z,99002.94
2023-03-26T02:18:27.666Z,99004.88
2023-03-26T02:18:59.097Z,99001.34
2023-03-26T02:19:30.617Z,99008.88
2023-03-26T02:20:04.835Z,98998.28
2023-03-26T02:20:36.293Z,98997.50
2023-03-26T02:21:07.953Z,98993.16
2023-03-26T02:21:39.545Z,98998.59
2023-03-26T02:22:11.306Z,98998.59
2023-03-26T02:22:42.893Z,98998.13
2023-03-26T02:23:14.331Z,98986.91
2023-03-26T02:23:45.820Z,98993.16
2023-03-26T02:24:17.284Z,99001.03
2023-03-26T02:24:48.947Z,98991.72
2023-03-26T02:25:20.364Z,98991.22
2023-03-26T02:25:51.989Z,98987.69
2023-03-26T02:26:23.626Z,98984.16
2023-03-26T02:26:55.170Z,98997.00
2023-03-26T02:27:26.580Z,98992.66
2023-03-26T02:27:58.190Z,98984.16
2023-03-26T02:28:29.581Z,98994.75
2023-03-26T02:29:01.213Z,98986.75
2023-03-26T02:29:32.622Z,98988.69
2023-03-26T02:30:06.925Z,98991.41
2023-03-26T02:30:38.459Z,98989.31
2023-03-26T02:31:09.944Z,98984.66
2023-03-26T02:31:41.661Z,98988.81
2023-03-26T02:32:13.260Z,98988.81
2023-03-26T02:32:44.746Z,98991.84
2023-03-26T02:33:16.438Z,98987.69
2023-03-26T02:33:47.889Z,98984.16
2023-03-26T02:34:19.366Z,98984.97
2023-03-26T02:34:50.764Z,98980.31
2023-03-26T02:35:22.282Z,98981.44
2023-03-26T02:35:54.056Z,98981.94
2023-03-26T02:36:25.853Z,98982.25
2023-03-26T02:36:57.407Z,98982.75
2023-03-26T02:37:28.934Z,98977.59
2023-03-26T02:38:03.197Z,98978.41
2023-03-26T02:38:34.738Z,98978.09
2023-03-26T02:39:06.183Z,98974.25
2023-03-26T02:39:37.788Z,98975.38
2023-03-26T02:40:09.240Z,98974.56
2023-03-26T02:40:40.859Z,98975.38
2023-03-26T02:41:12.317Z,98969.09
2023-03-26T02:41:43.834Z,98976.00
2023-03-26T02:42:15.269Z,98974.06
2023-03-26T02:42:49.579Z,98970.53
2023-03-26T02:43:21.175Z,98972.47
2023-03-26T02:43:52.553Z,98972.94
2023-03-26T02:44:24.128Z,98974.88
2023-03-26T02:44:55.574Z,98970.22
2023-03-26T02:45:27.200Z,98973.25
2023-03-26T02:45:58.970Z,98965.09
2023-03-26T02:46:30.589Z,98969.41
2023-03-26T02:47:02.132Z,98968.31
2023-03-26T02:47:33.559Z,98964.47
2023-03-26T02:48:05.151Z,98965.88
2023-03-26T02:48:36.724Z,98968.63
2023-03-26T02:49:08.267Z,98967.00
2023-03-26T02:49:41.146Z,98964.28
2023-03-26T02:50:12.552Z,98968.13
2023-03-26T02:50:43.963Z,98967.31
2023-03-26T02:51:15.528Z,98970.06
2023-03-26T02:51:46.996Z,98965.72
2023-03-26T02:52:18.618Z,98965.09
2023-03-26T02:52:50.315Z,98962.66
2023-03-26T02:53:21.756Z,98968.94
2023-03-26T02:53:53.192Z,98960.75
2023-03-26T02:54:24.749Z,98960.75
2023-03-26T02:54:56.171Z,98964.28
2023-03-26T02:55:27.644Z,98964.28
2023-03-26T02:55:59.098Z,98964.28
2023-03-26T02:56:30.701Z,98965.41
2023-03-26T02:57:02.217Z,98963.97
2023-03-26T02:57:33.829Z,98962.03
2023-03-26T02:58:05.237Z,98959.63
2023-03-26T02:58:36.788Z,98962.66
2023-03-26T02:59:08.499Z,98957.22
2023-03-26T02:59:40.029Z,98962.34
2023-03-26T03:00:11.474Z,98958.03
2023-03-26T03:00:43.000Z,98960.44
2023-03-26T03:01:17.452Z,98957.22
2023-03-26T03:01:49.137Z,98960.25
2023-03-26T03:02:20.562Z,98959.63
2023-03-26T03:02:52.177Z,98957.72
2023-03-26T03:03:23.735Z,98956.91
2023-03-26T03:03:55.274Z,98957.22
2023-03-26T03:04:26.723Z,98953.69
2023-03-26T03:04:58.268Z,98956.72
2023-03-26T03:05:29.653Z,98961.56
2023-03-26T03:06:01.174Z,98956.09
2023-03-26T03:06:32.699Z,98950.97
2023-03-26T03:07:04.223Z,98952.09
2023-03-26T03:07:35.633Z,98961.38
2023-03-26T03:08:07.052Z,98954.00
2023-03-26T03:08:38.591Z,98949.34
2023-03-26T03:09:10.118Z,98954.50
2023-03-26T03:09:41.572Z,98956.41
2023-03-26T03:10:16.077Z,98952.09
2023-03-26T03:10:47.488Z,98956.41
2023-03-26T03:11:18.939Z,98949.66
2023-03-26T03:11:50.451Z,98953.19
2023-03-26T03:12:21.861Z,98945.81
2023-03-26T03:12:53.298Z,98950.97
2023-03-26T03:13:24.818Z,98957.22
2023-03-26T03:13:56.273Z,98950.97
2023-03-26T03:14:27.775Z,98957.03
2023-03-26T03:14:59.227Z,98955.13
2023-03-26T03:15:30.898Z,98954.00
2023-03-26T03:16:02.358Z,98955.63
2023-03-26T03:16:33.847Z,98952.09
2023-03-26T03:17:05.407Z,98955.63
2023-03-26T03:17:36.855Z,98952.88
2023-03-26T03:18:08.357Z,98948.56
2023-03-26T03:18:39.893Z,98941.50
2023-03-26T03:19:11.351Z,98951.59
2023-03-26T03:19:43.008Z,98951.28
2023-03-26T03:20:14.445Z,98960.25
2023-03-26T03:20:45.961Z,98952.41
2023-03-26T03:21:17.552Z,98955.44
2023-03-26T03:21:49.073Z,98944.22
2023-03-26T03:22:20.483Z,98946.94
2023-03-26T03:22:52.016Z,98948.06
2023-03-26T03:23:23.402Z,98942.59
2023-03-26T03:24:00.195Z,98949.34
2023-03-26T03:24:34.666Z,98941.00
2023-03-26T03:25:07.218Z,98941.50
2023-03-26T03:25:38.633Z,98936.03
2023-03-26T03:26:10.212Z,98938.28
2023-03-26T03:26:41.697Z,98940.69
2023-03-26T03:27:13.264Z,98930.59
2023-03-26T03:27:46.749Z,98939.56
2023-03-26T03:28:18.213Z,98931.56
2023-03-26T03:28:49.706Z,98932.19
2023-03-26T03:29:21.075Z,98925.31
2023-03-26T03:29:52.486Z,98926.91
2023-03-26T03:30:23.915Z,98929.16
2023-03-26T03:30:55.502Z,98927.22
2023-03-26T03:31:27.016Z,98933.81
2023-03-26T03:31:58.649Z,98925.31
2023-03-26T03:32:30.078Z,98928.34
2023-03-26T03:33:01.613Z,98919.84
2023-03-26T03:33:33.036Z,98923.38
2023-03-26T03:34:04.543Z,98921.47
2023-03-26T03:34:35.932Z,98916.81
2023-03-26T03:35:07.354Z,98923.88
2023-03-26T03:35:38.958Z,98918.41
2023-03-26T03:36:10.510Z,98917.63
2023-03-26T03:36:52.158Z,98919.22
2023-03-26T03:37:23.754Z,98919.06
2023-03-26T03:37:55.222Z,98915.84
2023-03-26T03:38:26.734Z,98913.59
2023-03-26T03:38:58.130Z,98915.19
2023-03-26T03:39:29.560Z,98912.47
2023-03-26T03:40:01.026Z,98911.34
2023-03-26T03:40:35.574Z,98916.00
2023-03-26T03:41:06.990Z,98910.06
2023-03-26T03:41:38.435Z,98912.47
2023-03-26T03:42:09.867Z,98910.88
2023-03-26T03:42:44.507Z,98903.31
2023-03-26T03:43:16.019Z,98904.63
2023-03-26T03:43:47.564Z,98906.53
2023-03-26T03:44:19.051Z,98901.56
2023-03-26T03:44:50.573Z,98902.69
2023-03-26T03:45:22.026Z,98904.63
2023-03-26T03:45:53.631Z,98904.63
2023-03-26T03:46:26.849Z,98905.09
2023-03-26T03:46:58.352Z,98896.44
2023-03-26T03:47:29.754Z,98903.50
2023-03-26T03:48:01.407Z,98902.19
2023-03-26T03:48:33.029Z,98891.78
2023-03-26T03:49:04.443Z,98901.88
2023-03-26T03:49:35.833Z,98901.09
2023-03-26T03:50:07.247Z,98900.78
2023-03-26T03:50:38.844Z,98896.44
2023-03-26T03:51:10.336Z,98901.09
2023-03-26T03:51:41.795Z,98906.84
2023-03-26T03:52:13.247Z,98902.19
2023-03-26T03:52:44.686Z,98900.59
2023-03-26T03:53:18.806Z,98900.91
2023-03-26T03:53:50.223Z,98899.31
2023-03-26T03:54:21.757Z,98897.69
2023-03-26T03:54:53.207Z,98897.88
2023-03-26T03:55:27.367Z,98901.41
2023-03-26T03:55:58.922Z,98897.56
2023-03-26T03:56:30.477Z,98898.34
2023-03-26T03:57:02.167Z,98896.44
2023-03-26T03:57:33.851Z,98900.28
2023-03-26T03:58:05.247Z,98897.56
2023-03-26T03:58:36.672Z,98901.09
2023-03-26T03:59:08.133Z,98900.28
2023-03-26T03:59:47.954Z,98892.41
2023-03-26T04:00:19.847Z,98903.81
2023-03-26T04:00:51.401Z,98899.16
2023-03-26T04:01:22.995Z,98894.50
2023-03-26T04:01:54.485Z,98895.94
2023-03-26T04:02:26.438Z,98899.31
2023-03-26T04:02:58.451Z,98895.13
2023-03-26T04:03:33.909Z,98894.66
2023-03-26T04:04:06.020Z,98898.97
2023-03-26T04:04:37.505Z,98890.00
2023-03-26T04:05:09.106Z,98895.47
2023-03-26T04:05:40.499Z,98885.84
2023-03-26T04:06:14.612Z,98892.91
2023-03-26T04:06:48.529Z,98890.81
2023-03-26T04:07:19.977Z,98884.22
2023-03-26T04:07:51.527Z,98887.59
2023-03-26T04:08:22.983Z,98885.34
2023-03-26T04:08:54.541Z,98886.16
2023-03-26T04:09:26.016Z,98882.94
2023-03-26T04:09:57.530Z,98889.19
2023-03-26T04:10:28.964Z,98887.28
2023-03-26T04:11:03.213Z,98889.19
2023-03-26T04:11:34.746Z,98882.63
2023-03-26T04:12:09.218Z,98880.72
2023-03-26T04:12:40.909Z,98886.16
2023-03-26T04:13:12.319Z,98875.25
2023-03-26T04:13:43.891Z,98878.47
2023-03-26T04:14:18.424Z,98879.59
2023-03-26T04:14:49.963Z,98890.81
2023-03-26T04:15:21.432Z,98880.72
2023-03-26T04:15:53.177Z,98874.13
2023-03-26T04:16:24.798Z,98877.34
2023-03-26T04:16:56.454Z,98874.13
2023-03-26T04:17:30.506Z,98873.34
2023-03-26T04:18:02.216Z,98870.59
2023-03-26T04:18:33.847Z,98878.47
2023-03-26T04:19:05.265Z,98875.25
2023-03-26T04:19:36.698Z,98871.41
2023-03-26T04:20:08.207Z,98870.59
2023-03-26T04:20:39.623Z,98876.06
2023-03-26T04:21:11.150Z,98870.91
2023-03-26T04:21:42.609Z,98867.88
2023-03-26T04:22:14.133Z,98869.47
2023-03-26T04:22:45.610Z,98867.88
2023-03-26T04:23:17.174Z,98865.16
2023-03-26T04:23:48.594Z,98868.06
2023-03-26T04:24:20.031Z,98865.63
2023-03-26T04:24:51.482Z,98859.69
2023-03-26T04:25:22.894Z,98860.00
2023-03-26T04:25:54.640Z,98864.34
2023-03-26T04:26:26.332Z,98870.28
2023-03-26T04:26:57.816Z,98867.56
2023-03-26T04:27:29.272Z,98867.88
2023-03-26T04:28:01.030Z,98859.22
2023-03-26T04:28:32.533Z,98860.81
2023-03-26T04:29:04.021Z,98858.09
2023-03-26T04:29:35.514Z,98861.63
2023-03-26T04:30:06.897Z,98860.34
2023-03-26T04:30:38.328Z,98857.28
2023-03-26T04:31:09.803Z,98861.63
2023-03-26T04:31:41.225Z,98863.38
2023-03-26T04:32:12.714Z,98860.34
2023-03-26T04:32:44.135Z,98854.88
2023-03-26T04:33:15.678Z,98854.25
2023-03-26T04:33:47.130Z,98850.41
2023-03-26T04:34:18.616Z,98861.31
2023-03-26T04:34:50.132Z,98856.66
2023-03-26T04:35:24.726Z,98861.00
2023-03-26T04:35:56.343Z,98851.19
2023-03-26T04:36:27.984Z,98853.94
2023-03-26T04:36:59.392Z,98850.41
2023-03-26T04:37:36.790Z,98852.81
2023-03-26T04:38:08.203Z,98853.94
2023-03-26T04:38:40.043Z,98850.09
2023-03-26T04:39:11.521Z,98851.53
2023-03-26T04:39:42.902Z,98853.94
2023-03-26T04:40:14.446Z,98840.63
2023-03-26T04:40:45.854Z,98848.78
2023-03-26T04:41:17.356Z,98844.47
2023-03-26T04:41:48.822Z,98847.19
2023-03-26T04:42:20.340Z,98842.38
2023-03-26T04:42:51.822Z,98840.75
2023-03-26T04:43:23.388Z,98839.63
2023-03-26T04:43:54.899Z,98839.97
2023-03-26T04:44:26.418Z,98839.16
2023-03-26T04:44:58.065Z,98844.59
2023-03-26T04:45:29.567Z,98836.75
2023-03-26T04:46:01.006Z,98832.91
2023-03-26T04:46:32.562Z,98835.31
2023-03-26T04:47:04.132Z,98838.84
2023-03-26T04:47:35.650Z,98836.91
2023-03-26T04:48:07.157Z,98838.03
2023-03-26T04:48:38.662Z,98828.41
2023-03-26T04:49:13.288Z,98833.88
2023-03-26T04:49:44.759Z,98833.88
2023-03-26T04:50:16.191Z,98821.38
2023-03-26T04:50:47.743Z,98826.50
2023-03-26T04:51:19.145Z,98831.94
2023-03-26T04:51:50.692Z,98829.84
2023-03-26T04:52:22.116Z,98831.47
2023-03-26T04:52:53.512Z,98828.09
2023-03-26T04:53:25.034Z,98822.66
2023-03-26T04:53:56.481Z,98831.47
2023-03-26T04:54:28.008Z,98826.00
2023-03-26T04:54:59.408Z,98833.22
2023-03-26T04:55:30.910Z,98831.28
2023-03-26T04:56:02.358Z,98832.72
2023-03-26T04:56:33.800Z,98826.66
2023-03-26T04:57:05.355Z,98826.66
2023-03-26T04:57:36.731Z,98818.16
2023-03-26T04:58:08.166Z,98820.69
2023-03-26T04:58:39.605Z,98817.34
2023-03-26T04:59:11.034Z,98831.47
2023-03-26T04:59:42.480Z,98823.78
2023-03-26T05:00:13.910Z,98820.25
2023-03-26T05:00:45.492Z,98813.19
2023-03-26T05:01:17.033Z,98819.09
2023-03-26T05:01:48.525Z,98822.00
2023-03-26T05:02:22.882Z,98824.41
2023-03-26T05:02:54.493Z,98821.50
2023-03-26T05:03:25.861Z,98818.94
2023-03-26T05:03:57.523Z,98819.91
2023-03-26T05:04:29.072Z,98820.06
2023-03-26T05:05:00.616Z,98811.91
2023-03-26T05:05:32.052Z,98814.63
2023-03-26T05:06:03.583Z,98817.34
2023-03-26T05:06:35.038Z,98813.50
2023-03-26T05:07:06.674Z,98801.47
2023-03-26T05:07:38.070Z,98813.00
2023-03-26T05:08:09.635Z,98809.16
2023-03-26T05:08:41.219Z,98810.78
2023-03-26T05:09:12.787Z,98805.31
2023-03-26T05:09:46.061Z,98806.59
2023-03-26T05:10:17.466Z,98809.66
2023-03-26T05:10:48.950Z,98805.63
2023-03-26T05:11:23.159Z,98808.53
2023-03-26T05:11:56.862Z,98806.59
2023-03-26T05:12:28.368Z,98807.41
2023-03-26T05:12:59.760Z,98805.31
2023-03-26T05:13:31.200Z,98810.78
2023-03-26T05:14:02.614Z,98805.00
2023-03-26T05:14:34.200Z,98800.34
2023-03-26T05:15:08.565Z,98801.00
2023-03-26T05:15:40.067Z,98808.84
2023-03-26T05:16:11.577Z,98799.88
2023-03-26T05:16:43.204Z,98808.03
2023-03-26T05:17:17.473Z,98803.41
2023-03-26T05:17:51.957Z,98797.16
2023-03-26T05:18:23.423Z,98793.28
2023-03-26T05:18:55.180Z,98797.78
2023-03-26T05:19:29.116Z,98798.56
2023-03-26T05:20:00.674Z,98799.38
2023-03-26T05:20:32.114Z,98794.72
2023-03-26T05:21:03.675Z,98790.41
2023-03-26T05:21:35.235Z,98787.69
2023-03-26T05:22:06.682Z,98788.00
2023-03-26T05:22:38.268Z,98795.06
2023-03-26T05:23:09.742Z,98786.56
2023-03-26T05:23:41.190Z,98790.09
2023-03-26T05:24:12.591Z,98789.75
2023-03-26T05:24:44.000Z,98791.69
2023-03-26T05:25:18.399Z,98784.63
2023-03-26T05:25:52.155Z,98790.56
2023-03-26T05:26:23.694Z,98787.53
2023-03-26T05:26:55.165Z,98791.06
2023-03-26T05:27:26.584Z,98791.53
2023-03-26T05:27:58.048Z,98783.50
2023-03-26T05:28:29.477Z,98792.50
2023-03-26T05:29:00.887Z,98785.13
2023-03-26T05:29:32.370Z,98785.13
2023-03-26T05:30:07.014Z,98779.19
2023-03-26T05:30:38.473Z,98781.28
2023-03-26T05:31:09.905Z,98783.84
2023-03-26T05:31:41.280Z,98784.00
2023-03-26T05:32:12.691Z,98780.31
2023-03-26T05:32:46.836Z,98780.16
2023-03-26T05:33:18.282Z,98782.56
2023-03-26T05:33:49.822Z,98778.53
2023-03-26T05:34:24.205Z,98775.03
2023-03-26T05:34:55.649Z,98777.25
2023-03-26T05:35:27.120Z,98768.28
2023-03-26T05:35:58.677Z,98770.19
2023-03-26T05:36:30.230Z,98770.19
2023-03-26T05:37:01.704Z,98768.44
2023-03-26T05:37:33.200Z,98772.28
2023-03-26T05:38:04.620Z,98770.69
2023-03-26T05:38:36.043Z,98762.19
2023-03-26T05:39:07.476Z,98769.88
2023-03-26T05:39:41.490Z,98768.28
2023-03-26T05:40:12.964Z,98766.34
2023-03-26T05:40:44.526Z,98771.50
2023-03-26T05:41:16.102Z,98773.41
2023-03-26T05:41:47.576Z,98766.84
2023-03-26T05:42:19.014Z,98769.25
2023-03-26T05:42:50.793Z,98769.25
2023-03-26T05:43:22.235Z,98759.78
2023-03-26T05:43:53.686Z,98769.25
2023-03-26T05:44:25.165Z,98766.84
2023-03-26T05:44:56.706Z,98761.38
2023-03-26T05:45:28.127Z,98768.75
2023-03-26T05:45:59.674Z,98769.88
2023-03-26T05:46:31.295Z,98761.38
2023-03-26T05:47:02.884Z,98764.13
2023-03-26T05:47:34.420Z,98763.63
2023-03-26T05:48:06.019Z,98768.28
2023-03-26T05:48:37.513Z,98756.88
2023-03-26T05:49:11.337Z,98767.47
2023-03-26T05:49:42.849Z,98758.50
2023-03-26T05:50:14.328Z,98758.19
2023-03-26T05:50:45.817Z,98757.38
2023-03-26T05:51:17.214Z,98762.03
2023-03-26T05:51:48.701Z,98756.88
2023-03-26T05:52:20.173Z,98757.38
2023-03-26T05:52:51.730Z,98756.41
2023-03-26T05:53:23.193Z,98755.28
2023-03-26T05:53:54.652Z,98757.53
2023-03-26T05:54:27.145Z,98755.91
2023-03-26T05:54:58.580Z,98754.16
2023-03-26T05:55:30.050Z,98753.84
2023-03-26T05:56:01.562Z,98755.13
2023-03-26T05:56:33.006Z,98754.66
2023-03-26T05:57:04.621Z,98747.75
2023-03-26T05:57:36.101Z,98751.13
2023-03-26T05:58:07.723Z,98745.34
2023-03-26T05:58:39.197Z,98739.56
2023-03-26T05:59:10.709Z,98741.50
2023-03-26T05:59:42.296Z,98748.72
2023-03-26T06:00:13.687Z,98742.63
2023-03-26T06:00:45.213Z,98740.53
2023-03-26T06:01:16.781Z,98752.72
2023-03-26T06:01:51.662Z,98741.34
2023-03-26T06:02:23.153Z,98746.31
2023-03-26T06:02:56.722Z,98739.41
2023-03-26T06:03:28.913Z,98737.81
2023-03-26T06:04:00.701Z,98738.94
2023-03-26T06:04:32.427Z,98737.00
2023-03-26T06:05:03.967Z,98731.56
2023-03-26T06:05:35.407Z,98738.59
2023-03-26T06:06:06.925Z,98737.50
2023-03-26T06:06:38.476Z,98734.44
2023-03-26T06:07:10.002Z,98732.19
2023-03-26T06:07:41.450Z,98738.13
2023-03-26T06:08:12.981Z,98733.00
2023-03-26T06:08:44.407Z,98733.81
2023-03-26T06:09:16.002Z,98732.19
2023-03-26T06:09:47.444Z,98736.53
2023-03-26T06:10:19.252Z,98736.53
2023-03-26T06:10:50.684Z,98734.28
2023-03-26T06:11:22.212Z,98724.19
2023-03-26T06:11:53.624Z,98731.09
2023-03-26T06:12:25.163Z,98737.16
2023-03-26T06:12:56.573Z,98724.03
2023-03-26T06:13:27.983Z,98728.66
2023-03-26T06:13:59.488Z,98728.19
2023-03-26T06:14:30.968Z,98725.78